KAUG/AUG METAR and TAF weather

Enter ICAO airport designator
Station Type Date Time Source
KAUG METAR 2019/10/18 05:53 UTC NOAA

KAUG 180553Z AUTO 30008G18KT 10SM BKN030 09/05 A2929 RMK AO2 SLP921 60000 T00890050 10094 20072 53036


Station Type Date Time Source
KAUG Decoded METAR 2019/10/18 05:53 UTC NOAA

AUGUSTA STATE AIRPORT, ME, United States (KAUG) 44-19N 069-48W 109M
Oct 18, 2019 - 01:53 AM EDT / 2019.10.18 0553 UTC
Wind: from the WNW (300 degrees) at 9 MPH (8 KT) gusting to 21 MPH (18 KT):0
Visibility: 10 mile(s):0
Sky conditions: mostly cloudy
Temperature: 48.0 F (8.9 C)
Dew Point: 41.0 F (5.0 C)
Relative Humidity: 76%
Pressure (altimeter): 29.29 in. Hg (991 hPa)
Pressure tendency: 0.11 inches (3.6 hPa) higher than three hours ago
ob: KAUG 180553Z AUTO 30008G18KT 10SM BKN030 09/05 A2929 RMK AO2 SLP921 60000 T00890050 10094 20072 53036
cycle: 6

Station Type Date Time Source
KAUG TAF 2019/10/18 06:24 UTC NOAA

TAF KAUG 180521Z 1806/1906 30009KT P6SM BKN040
FM181300 30008G17KT P6SM BKN040

Example: see airport list